PWSweather.com
Personal Weather Stations
Station Observations
KNVELKO7
Elko, NV 89801

Elko, NV 89801

Lat: 40.963233, Lon: -115.592836

Elevation: 5230

Station Type: WS-2812

High Low Average
Temperature 63.4°F17.4°F 30.4°F-0.9°F 43.7°F6.5°F
Dew Point 34.6°F1.4°F 18.1°F-7.7°F 27.4°F-2.6°F
Winds 30.9 mph WSW49.7 mph WSW Calm Calm 7.6 mph 12.2 mph
Wind Gusts 34.4 mph55.4 mph -- 10.4 mph16.7 mph
Humidity 80% 25% 56%
Pressure 29.96 in1014.60 in 29.71 in1006.10 in -
Precipitation 0.70 in17.80 in - -
Hour Temp Dew Point Humidity Winds Wind Gusts Pressure Precip Precip Rate Daily Precip Total
12:04 AM 49.3°F9.6°C 18.3°F-7.6°C 29% 1.9 mph N3.1 kmh N 2.0 mph3.2 kmh 29.91 in1012.9 mb 0.00 in0.0 mm 0.00 in/hr0.0 mm/hr 0.00 in0.0 mm
12:09 AM 49.0°F9.4°C 18.9°F-7.3°C 30% 0.2 mph NNE0.3 kmh NNE 5.1 mph8.2 kmh 29.91 in1012.9 mb 0.00 in0.0 mm 0.00 in/hr0.0 mm/hr 0.00 in0.0 mm
12:13 AM 48.8°F9.3°C 19.4°F-7.0°C 31% 0.8 mph ENE1.3 kmh ENE 5.1 mph8.2 kmh 29.91 in1012.9 mb 0.00 in0.0 mm 0.00 in/hr0.0 mm/hr 0.00 in0.0 mm
12:18 AM 48.4°F9.1°C 19.2°F-7.1°C 31% 2.3 mph NE3.7 kmh NE 3.1 mph5.0 kmh 29.91 in1012.9 mb 0.00 in0.0 mm 0.00 in/hr0.0 mm/hr 0.00 in0.0 mm
12:23 AM 48.2°F9.0°C 19.0°F-7.2°C 31% 2.2 mph 3.5 kmh 3.1 mph5.0 kmh 29.91 in1012.9 mb 0.00 in0.0 mm 0.00 in/hr0.0 mm/hr 0.00 in0.0 mm
12:28 AM 47.9°F8.8°C 19.4°F-7.0°C 32% 1.3 mph NNW2.1 kmh NNW 3.1 mph5.0 kmh 29.90 in1012.5 mb 0.00 in0.0 mm 0.00 in/hr0.0 mm/hr 0.00 in0.0 mm
12:33 AM 47.3°F8.5°C 19.5°F-6.9°C 33% 3.2 mph NNW5.1 kmh NNW 3.4 mph5.5 kmh 29.91 in1012.9 mb 0.00 in0.0 mm 0.00 in/hr0.0 mm/hr 0.00 in0.0 mm
12:38 AM 46.6°F8.1°C 18.9°F-7.3°C 33% 2.5 mph NNW4.0 kmh NNW 3.4 mph5.5 kmh 29.91 in1012.9 mb 0.00 in0.0 mm 0.00 in/hr0.0 mm/hr 0.00 in0.0 mm
12:43 AM 46.3°F7.9°C 18.5°F-7.5°C 33% 3.0 mph 4.8 kmh 3.6 mph5.8 kmh 29.90 in1012.5 mb 0.00 in0.0 mm 0.00 in/hr0.0 mm/hr 0.00 in0.0 mm
12:48 AM 46.1°F7.8°C 18.5°F-7.5°C 33% 2.4 mph 3.9 kmh 3.6 mph5.8 kmh 29.90 in1012.5 mb 0.00 in0.0 mm 0.00 in/hr0.0 mm/hr 0.00 in0.0 mm
12:53 AM 46.3°F7.9°C 18.5°F-7.5°C 33% 2.3 mph 3.7 kmh 3.4 mph5.5 kmh 29.90 in1012.5 mb 0.00 in0.0 mm 0.00 in/hr0.0 mm/hr 0.00 in0.0 mm
12:58 AM 46.4°F8.0°C 18.7°F-7.4°C 33% 2.3 mph 3.7 kmh 2.9 mph4.7 kmh 29.90 in1012.5 mb 0.00 in0.0 mm 0.00 in/hr0.0 mm/hr 0.00 in0.0 mm
01:04 AM 46.4°F8.0°C 18.7°F-7.4°C 33% 2.4 mph NNE3.9 kmh NNE 3.6 mph5.8 kmh 29.90 in1012.5 mb 0.00 in0.0 mm 0.00 in/hr0.0 mm/hr 0.00 in0.0 mm
01:09 AM 46.6°F8.1°C 18.9°F-7.3°C 33% 0.4 mph 0.6 kmh 3.6 mph5.8 kmh 29.90 in1012.5 mb 0.00 in0.0 mm 0.00 in/hr0.0 mm/hr 0.00 in0.0 mm
01:14 AM 46.4°F8.0°C 18.7°F-7.4°C 33% 0.8 mph NW1.3 kmh NW 2.2 mph3.5 kmh 29.89 in1012.2 mb 0.00 in0.0 mm 0.00 in/hr0.0 mm/hr 0.00 in0.0 mm
01:19 AM 46.4°F8.0°C 18.7°F-7.4°C 33% 1.0 mph 1.6 kmh 1.8 mph2.9 kmh 29.89 in1012.2 mb 0.00 in0.0 mm 0.00 in/hr0.0 mm/hr 0.00 in0.0 mm
01:24 AM 46.3°F7.9°C 18.5°F-7.5°C 33% 2.3 mph NNW3.7 kmh NNW 2.7 mph4.3 kmh 29.89 in1012.2 mb 0.00 in0.0 mm 0.00 in/hr0.0 mm/hr 0.00 in0.0 mm
01:29 AM 46.1°F7.8°C 18.5°F-7.5°C 33% 2.5 mph N4.0 kmh N 3.1 mph5.0 kmh 29.89 in1012.2 mb 0.00 in0.0 mm 0.00 in/hr0.0 mm/hr 0.00 in0.0 mm
01:34 AM 45.9°F7.7°C 18.3°F-7.6°C 33% 3.2 mph NNW5.1 kmh NNW 3.4 mph5.5 kmh 29.88 in1011.9 mb 0.00 in0.0 mm 0.00 in/hr0.0 mm/hr 0.00 in0.0 mm
01:39 AM 45.7°F7.6°C 18.1°F-7.7°C 33% 4.7 mph N7.6 kmh N 5.1 mph8.2 kmh 29.88 in1011.9 mb 0.00 in0.0 mm 0.00 in/hr0.0 mm/hr 0.00 in0.0 mm
01:43 AM 45.5°F7.5°C 18.6°F-7.4°C 34% 5.0 mph N8.0 kmh N 5.4 mph8.7 kmh 29.87 in1011.5 mb 0.00 in0.0 mm 0.00 in/hr0.0 mm/hr 0.00 in0.0 mm
01:48 AM 45.4°F7.4°C 19.1°F-7.2°C 35% 4.1 mph 6.6 kmh 5.4 mph8.7 kmh 29.87 in1011.5 mb 0.00 in0.0 mm 0.00 in/hr0.0 mm/hr 0.00 in0.0 mm
01:53 AM 45.2°F7.3°C 18.9°F-7.3°C 35% 3.3 mph 5.3 kmh 4.7 mph7.6 kmh 29.87 in1011.5 mb 0.00 in0.0 mm 0.00 in/hr0.0 mm/hr 0.00 in0.0 mm
01:58 AM 45.2°F7.3°C 18.9°F-7.3°C 35% 3.2 mph 5.1 kmh 4.3 mph6.9 kmh 29.87 in1011.5 mb 0.00 in0.0 mm 0.00 in/hr0.0 mm/hr 0.00 in0.0 mm
02:04 AM 45.2°F7.3°C 18.9°F-7.3°C 35% 2.8 mph 4.5 kmh 4.0 mph6.4 kmh 29.87 in1011.5 mb 0.00 in0.0 mm 0.00 in/hr0.0 mm/hr 0.00 in0.0 mm
02:09 AM 45.2°F7.3°C 18.9°F-7.3°C 35% 2.5 mph 4.0 kmh 4.0 mph6.4 kmh 29.87 in1011.5 mb 0.00 in0.0 mm 0.00 in/hr0.0 mm/hr 0.00 in0.0 mm
02:14 AM 45.2°F7.3°C 18.9°F-7.3°C 35% 4.1 mph NNW6.6 kmh NNW 4.9 mph7.9 kmh 29.86 in1011.2 mb 0.00 in0.0 mm 0.00 in/hr0.0 mm/hr 0.00 in0.0 mm
02:19 AM 45.0°F7.2°C 19.4°F-7.0°C 36% 3.0 mph N4.8 kmh N 4.9 mph7.9 kmh 29.86 in1011.2 mb 0.00 in0.0 mm 0.00 in/hr0.0 mm/hr 0.00 in0.0 mm
02:24 AM 45.0°F7.2°C 19.4°F-7.0°C 36% 2.5 mph 4.0 kmh 4.7 mph7.6 kmh 29.86 in1011.2 mb 0.00 in0.0 mm 0.00 in/hr0.0 mm/hr 0.00 in0.0 mm
02:29 AM 45.0°F7.2°C 19.4°F-7.0°C 36% 2.1 mph 3.4 kmh 2.5 mph4.0 kmh 29.85 in1010.8 mb 0.00 in0.0 mm 0.00 in/hr0.0 mm/hr 0.00 in0.0 mm
02:34 AM 45.2°F7.3°C 19.6°F-6.9°C 36% 1.5 mph 2.4 kmh 2.5 mph4.0 kmh 29.85 in1010.8 mb 0.00 in0.0 mm 0.00 in/hr0.0 mm/hr 0.00 in0.0 mm
02:39 AM 45.4°F7.4°C 19.8°F-6.8°C 36% 0.6 mph NNW1.0 kmh NNW 2.5 mph4.0 kmh 29.84 in1010.5 mb 0.00 in0.0 mm 0.00 in/hr0.0 mm/hr 0.00 in0.0 mm
02:44 AM 45.2°F7.3°C 19.6°F-6.9°C 36% 3.5 mph E5.6 kmh E 3.6 mph5.8 kmh 29.84 in1010.5 mb 0.00 in0.0 mm 0.00 in/hr0.0 mm/hr 0.00 in0.0 mm
02:49 AM 45.0°F7.2°C 19.4°F-7.0°C 36% 2.5 mph NE4.0 kmh NE 3.6 mph5.8 kmh 29.84 in1010.5 mb 0.00 in0.0 mm 0.00 in/hr0.0 mm/hr 0.00 in0.0 mm
02:54 AM 44.8°F7.1°C 20.0°F-6.7°C 37% 0.4 mph SE0.6 kmh SE 3.6 mph5.8 kmh 29.83 in1010.2 mb 0.00 in0.0 mm 0.00 in/hr0.0 mm/hr 0.00 in0.0 mm
02:59 AM 44.8°F7.1°C 20.0°F-6.7°C 37% 0.2 mph ENE0.3 kmh ENE 1.6 mph2.6 kmh 29.83 in1010.2 mb 0.00 in0.0 mm 0.00 in/hr0.0 mm/hr 0.00 in0.0 mm
03:04 AM 44.8°F7.1°C 19.3°F-7.1°C 36% 1.4 mph NNE2.3 kmh NNE 2.0 mph3.2 kmh 29.83 in1010.2 mb 0.00 in0.0 mm 0.00 in/hr0.0 mm/hr 0.00 in0.0 mm
03:09 AM 44.8°F7.1°C 20.0°F-6.7°C 37% 0.2 mph ESE0.3 kmh ESE 3.4 mph5.5 kmh 29.83 in1010.2 mb 0.00 in0.0 mm 0.00 in/hr0.0 mm/hr 0.00 in0.0 mm
03:14 AM 44.6°F7.0°C 20.4°F-6.4°C 38% 2.3 mph E3.7 kmh E 3.4 mph5.5 kmh 29.82 in1009.8 mb 0.00 in0.0 mm 0.00 in/hr0.0 mm/hr 0.00 in0.0 mm
03:19 AM 44.5°F6.9°C 19.6°F-6.9°C 37% 5.5 mph E8.9 kmh E 6.5 mph10.5 kmh 29.83 in1010.2 mb 0.00 in0.0 mm 0.00 in/hr0.0 mm/hr 0.00 in0.0 mm
03:24 AM 44.5°F6.9°C 20.3°F-6.5°C 38% 4.7 mph E7.6 kmh E 6.5 mph10.5 kmh 29.82 in1009.8 mb 0.00 in0.0 mm 0.00 in/hr0.0 mm/hr 0.00 in0.0 mm
03:29 AM 44.5°F6.9°C 21.0°F-6.1°C 39% 7.4 mph ENE11.9 kmh ENE 7.6 mph12.2 kmh 29.82 in1009.8 mb 0.00 in0.0 mm 0.00 in/hr0.0 mm/hr 0.00 in0.0 mm
03:34 AM 44.6°F7.0°C 21.2°F-6.0°C 39% 3.9 mph E6.3 kmh E 7.6 mph12.2 kmh 29.82 in1009.8 mb 0.00 in0.0 mm 0.00 in/hr0.0 mm/hr 0.00 in0.0 mm
03:39 AM 44.6°F7.0°C 21.2°F-6.0°C 39% 2.5 mph N4.0 kmh N 6.9 mph11.1 kmh 29.81 in1009.5 mb 0.00 in0.0 mm 0.00 in/hr0.0 mm/hr 0.00 in0.0 mm
03:44 AM 44.3°F6.8°C 20.8°F-6.2°C 39% 4.1 mph E6.6 kmh E 6.7 mph10.8 kmh 29.82 in1009.8 mb 0.00 in0.0 mm 0.00 in/hr0.0 mm/hr 0.00 in0.0 mm
03:49 AM 44.1°F6.7°C 20.6°F-6.3°C 39% 3.4 mph N5.5 kmh N 6.7 mph10.8 kmh 29.82 in1009.8 mb 0.00 in0.0 mm 0.00 in/hr0.0 mm/hr 0.00 in0.0 mm
03:54 AM 43.4°F6.3°C 20.0°F-6.7°C 39% 5.7 mph NE9.2 kmh NE 6.5 mph10.5 kmh 29.81 in1009.5 mb 0.00 in0.0 mm 0.00 in/hr0.0 mm/hr 0.00 in0.0 mm
03:59 AM 42.5°F5.8°C 19.8°F-6.8°C 40% 4.2 mph NE6.8 kmh NE 6.5 mph10.5 kmh 29.81 in1009.5 mb 0.00 in0.0 mm 0.00 in/hr0.0 mm/hr 0.00 in0.0 mm
04:04 AM 42.3°F5.7°C 21.2°F-6.0°C 43% 6.1 mph NE9.8 kmh NE 6.3 mph10.1 kmh 29.81 in1009.5 mb 0.00 in0.0 mm 0.00 in/hr0.0 mm/hr 0.00 in0.0 mm
04:09 AM 42.3°F5.7°C 21.2°F-6.0°C 43% 1.0 mph NW1.6 kmh NW 6.3 mph10.1 kmh 29.81 in1009.5 mb 0.00 in0.0 mm 0.00 in/hr0.0 mm/hr 0.00 in0.0 mm
04:14 AM 41.8°F5.4°C 20.8°F-6.2°C 43% 3.5 mph N5.6 kmh N 5.4 mph8.7 kmh 29.81 in1009.5 mb 0.00 in0.0 mm 0.00 in/hr0.0 mm/hr 0.00 in0.0 mm
04:19 AM 41.6°F5.3°C 20.6°F-6.3°C 43% 5.4 mph NNE8.7 kmh NNE 5.4 mph8.7 kmh 29.80 in1009.1 mb 0.00 in0.0 mm 0.00 in/hr0.0 mm/hr 0.00 in0.0 mm
04:24 AM 41.6°F5.3°C 21.7°F-5.7°C 45% 5.7 mph 9.2 kmh 7.4 mph11.9 kmh 29.80 in1009.1 mb 0.00 in0.0 mm 0.00 in/hr0.0 mm/hr 0.00 in0.0 mm
04:29 AM 41.8°F5.4°C 21.9°F-5.6°C 45% 1.5 mph 2.4 kmh 7.4 mph11.9 kmh 29.80 in1009.1 mb 0.00 in0.0 mm 0.00 in/hr0.0 mm/hr 0.00 in0.0 mm
04:34 AM 41.8°F5.4°C 21.3°F-5.9°C 44% 4.1 mph N6.6 kmh N 4.3 mph6.9 kmh 29.79 in1008.8 mb 0.00 in0.0 mm 0.00 in/hr0.0 mm/hr 0.00 in0.0 mm
04:39 AM 41.4°F5.2°C 21.0°F-6.1°C 44% 3.8 mph NNW6.1 kmh NNW 4.9 mph7.9 kmh 29.78 in1008.5 mb 0.00 in0.0 mm 0.00 in/hr0.0 mm/hr 0.00 in0.0 mm
04:44 AM 41.4°F5.2°C 21.0°F-6.1°C 44% 1.5 mph NNW2.4 kmh NNW 4.9 mph7.9 kmh 29.79 in1008.8 mb 0.00 in0.0 mm 0.00 in/hr0.0 mm/hr 0.00 in0.0 mm
04:49 AM 41.2°F5.1°C 20.3°F-6.5°C 43% 2.5 mph S4.0 kmh S 2.5 mph4.0 kmh 29.79 in1008.8 mb 0.00 in0.0 mm 0.00 in/hr0.0 mm/hr 0.00 in0.0 mm
04:54 AM 41.0°F5.0°C 20.6°F-6.3°C 44% 0.2 mph SSW0.3 kmh SSW 2.5 mph4.0 kmh 29.78 in1008.5 mb 0.00 in0.0 mm 0.00 in/hr0.0 mm/hr 0.00 in0.0 mm
05:00 AM 40.9°F4.9°C 20.0°F-6.7°C 43% 2.7 mph NE4.3 kmh NE 3.4 mph5.5 kmh 29.78 in1008.5 mb 0.00 in0.0 mm 0.00 in/hr0.0 mm/hr 0.00 in0.0 mm
05:05 AM 40.7°F4.8°C 20.4°F-6.4°C 44% 5.0 mph N8.0 kmh N 5.4 mph8.7 kmh 29.78 in1008.5 mb 0.00 in0.0 mm 0.00 in/hr0.0 mm/hr 0.00 in0.0 mm
05:10 AM 40.7°F4.8°C 20.4°F-6.4°C 44% 2.7 mph SW4.3 kmh SW 5.4 mph8.7 kmh 29.78 in1008.5 mb 0.00 in0.0 mm 0.00 in/hr0.0 mm/hr 0.00 in0.0 mm
05:15 AM 40.5°F4.7°C 20.2°F-6.6°C 44% 1.0 mph N1.6 kmh N 4.5 mph7.2 kmh 29.78 in1008.5 mb 0.00 in0.0 mm 0.00 in/hr0.0 mm/hr 0.00 in0.0 mm
05:20 AM 40.7°F4.8°C 20.4°F-6.4°C 44% 2.0 mph SSW3.2 kmh SSW 3.4 mph5.5 kmh 29.78 in1008.5 mb 0.00 in0.0 mm 0.00 in/hr0.0 mm/hr 0.00 in0.0 mm
05:25 AM 40.5°F4.7°C 20.2°F-6.6°C 44% 4.5 mph 7.2 kmh 4.5 mph7.2 kmh 29.78 in1008.5 mb 0.00 in0.0 mm 0.00 in/hr0.0 mm/hr 0.00 in0.0 mm
05:29 AM 40.7°F4.8°C 20.4°F-6.4°C 44% 1.8 mph NNW2.9 kmh NNW 4.5 mph7.2 kmh 29.78 in1008.5 mb 0.00 in0.0 mm 0.00 in/hr0.0 mm/hr 0.00 in0.0 mm
05:34 AM 40.7°F4.8°C 20.4°F-6.4°C 44% 1.1 mph SSE1.8 kmh SSE 4.5 mph7.2 kmh 29.78 in1008.5 mb 0.00 in0.0 mm 0.00 in/hr0.0 mm/hr 0.00 in0.0 mm
05:39 AM 40.9°F4.9°C 20.0°F-6.7°C 43% 1.9 mph 3.1 kmh 2.9 mph4.7 kmh 29.78 in1008.5 mb 0.00 in0.0 mm 0.00 in/hr0.0 mm/hr 0.00 in0.0 mm
05:44 AM 41.0°F5.0°C 20.1°F-6.6°C 43% 0.4 mph NE0.6 kmh NE 2.9 mph4.7 kmh 29.77 in1008.1 mb 0.00 in0.0 mm 0.00 in/hr0.0 mm/hr 0.00 in0.0 mm
05:49 AM 41.0°F5.0°C 20.1°F-6.6°C 43% 3.4 mph NNE5.5 kmh NNE 4.5 mph7.2 kmh 29.77 in1008.1 mb 0.00 in0.0 mm 0.00 in/hr0.0 mm/hr 0.00 in0.0 mm
05:54 AM 41.0°F5.0°C 20.1°F-6.6°C 43% Calm Calm 4.5 mph7.2 kmh 29.77 in1008.1 mb 0.00 in0.0 mm 0.00 in/hr0.0 mm/hr 0.00 in0.0 mm
06:00 AM 41.0°F5.0°C 20.1°F-6.6°C 43% 2.3 mph 3.7 kmh 3.4 mph5.5 kmh 29.77 in1008.1 mb 0.00 in0.0 mm 0.00 in/hr0.0 mm/hr 0.00 in0.0 mm
06:05 AM 40.9°F4.9°C 19.5°F-6.9°C 42% 2.3 mph 3.7 kmh 3.4 mph5.5 kmh 29.77 in1008.1 mb 0.00 in0.0 mm 0.00 in/hr0.0 mm/hr 0.00 in0.0 mm
06:10 AM 41.0°F5.0°C 20.1°F-6.6°C 43% 4.4 mph NE7.1 kmh NE 6.9 mph11.1 kmh 29.76 in1007.8 mb 0.00 in0.0 mm 0.00 in/hr0.0 mm/hr 0.00 in0.0 mm
06:15 AM 41.0°F5.0°C 20.6°F-6.3°C 44% 1.4 mph ENE2.3 kmh ENE 6.9 mph11.1 kmh 29.77 in1008.1 mb 0.00 in0.0 mm 0.00 in/hr0.0 mm/hr 0.00 in0.0 mm
06:20 AM 41.2°F5.1°C 20.8°F-6.2°C 44% 1.9 mph WSW3.1 kmh WSW 3.4 mph5.5 kmh 29.76 in1007.8 mb 0.00 in0.0 mm 0.00 in/hr0.0 mm/hr 0.00 in0.0 mm
06:25 AM 41.0°F5.0°C 20.6°F-6.3°C 44% 2.0 mph NNW3.2 kmh NNW 6.3 mph10.1 kmh 29.76 in1007.8 mb 0.00 in0.0 mm 0.00 in/hr0.0 mm/hr 0.00 in0.0 mm
06:30 AM 40.9°F4.9°C 21.0°F-6.1°C 45% 0.8 mph WSW1.3 kmh WSW 6.3 mph10.1 kmh 29.76 in1007.8 mb 0.00 in0.0 mm 0.00 in/hr0.0 mm/hr 0.00 in0.0 mm
06:35 AM 40.9°F4.9°C 21.0°F-6.1°C 45% 2.8 mph S4.5 kmh S 4.7 mph7.6 kmh 29.77 in1008.1 mb 0.00 in0.0 mm 0.00 in/hr0.0 mm/hr 0.00 in0.0 mm
06:40 AM 41.2°F5.1°C 21.9°F-5.6°C 46% Calm Calm 3.6 mph5.8 kmh 29.77 in1008.1 mb 0.00 in0.0 mm 0.00 in/hr0.0 mm/hr 0.00 in0.0 mm
06:45 AM 41.4°F5.2°C 22.1°F-5.5°C 46% 0.4 mph SW0.6 kmh SW 3.4 mph5.5 kmh 29.77 in1008.1 mb 0.00 in0.0 mm 0.00 in/hr0.0 mm/hr 0.00 in0.0 mm
06:50 AM 41.8°F5.4°C 22.9°F-5.1°C 47% 2.5 mph ESE4.0 kmh ESE 2.5 mph4.0 kmh 29.77 in1008.1 mb 0.00 in0.0 mm 0.00 in/hr0.0 mm/hr 0.00 in0.0 mm
06:55 AM 42.1°F5.6°C 23.2°F-4.9°C 47% 1.1 mph S1.8 kmh S 2.5 mph4.0 kmh 29.76 in1007.8 mb 0.00 in0.0 mm 0.00 in/hr0.0 mm/hr 0.00 in0.0 mm
07:00 AM 42.8°F6.0°C 23.9°F-4.5°C 47% 3.0 mph WSW4.8 kmh WSW 3.8 mph6.1 kmh 29.77 in1008.1 mb 0.00 in0.0 mm 0.00 in/hr0.0 mm/hr 0.00 in0.0 mm
07:05 AM 43.6°F6.4°C 24.6°F-4.1°C 47% 0.2 mph SSW0.3 kmh SSW 5.6 mph9.0 kmh 29.76 in1007.8 mb 0.00 in0.0 mm 0.00 in/hr0.0 mm/hr 0.00 in0.0 mm
07:10 AM 44.3°F6.8°C 24.7°F-4.1°C 46% Calm Calm 5.6 mph9.0 kmh 29.76 in1007.8 mb 0.00 in0.0 mm 0.00 in/hr0.0 mm/hr 0.00 in0.0 mm
07:15 AM 45.4°F7.4°C 25.7°F-3.5°C 46% 2.0 mph SW3.2 kmh SW 4.0 mph6.4 kmh 29.76 in1007.8 mb 0.00 in0.0 mm 0.00 in/hr0.0 mm/hr 0.00 in0.0 mm
07:20 AM 46.3°F7.9°C 25.9°F-3.4°C 45% 3.5 mph SW5.6 kmh SW 4.0 mph6.4 kmh 29.76 in1007.8 mb 0.00 in0.0 mm 0.00 in/hr0.0 mm/hr 0.00 in0.0 mm
07:25 AM 47.2°F8.4°C 26.2°F-3.2°C 44% 1.9 mph W3.1 kmh W 4.0 mph6.4 kmh 29.76 in1007.8 mb 0.00 in0.0 mm 0.00 in/hr0.0 mm/hr 0.00 in0.0 mm
07:30 AM 47.9°F8.8°C 26.3°F-3.2°C 43% 3.7 mph SW6.0 kmh SW 5.4 mph8.7 kmh 29.75 in1007.5 mb 0.00 in0.0 mm 0.00 in/hr0.0 mm/hr 0.00 in0.0 mm
07:35 AM 49.0°F9.4°C 27.3°F-2.6°C 43% 1.1 mph W1.8 kmh W 5.4 mph8.7 kmh 29.75 in1007.5 mb 0.00 in0.0 mm 0.00 in/hr0.0 mm/hr 0.00 in0.0 mm
07:40 AM 49.7°F9.8°C 27.5°F-2.5°C 42% 2.3 mph WSW3.7 kmh WSW 6.5 mph10.5 kmh 29.75 in1007.5 mb 0.00 in0.0 mm 0.00 in/hr0.0 mm/hr 0.00 in0.0 mm
07:45 AM 50.4°F10.2°C 28.6°F-1.9°C 43% 0.8 mph SSW1.3 kmh SSW 6.5 mph10.5 kmh 29.75 in1007.5 mb 0.00 in0.0 mm 0.00 in/hr0.0 mm/hr 0.00 in0.0 mm
07:50 AM 50.9°F10.5°C 28.5°F-1.9°C 42% 0.8 mph WSW1.3 kmh WSW 2.0 mph3.2 kmh 29.75 in1007.5 mb 0.00 in0.0 mm 0.00 in/hr0.0 mm/hr 0.00 in0.0 mm
07:55 AM 51.3°F10.7°C 28.4°F-2.0°C 41% 7.1 mph WSW11.4 kmh WSW 8.7 mph14.0 kmh 29.75 in1007.5 mb 0.00 in0.0 mm 0.00 in/hr0.0 mm/hr 0.00 in0.0 mm
08:00 AM 51.1°F10.6°C 28.2°F-2.1°C 41% 6.0 mph WSW9.7 kmh WSW 8.7 mph14.0 kmh 29.74 in1007.1 mb 0.00 in0.0 mm 0.00 in/hr0.0 mm/hr 0.00 in0.0 mm
08:05 AM 51.1°F10.6°C 28.2°F-2.1°C 41% 7.1 mph SW11.4 kmh SW 8.9 mph14.3 kmh 29.74 in1007.1 mb 0.00 in0.0 mm 0.00 in/hr0.0 mm/hr 0.00 in0.0 mm
08:10 AM 51.8°F11.0°C 28.8°F-1.8°C 41% 3.7 mph SW6.0 kmh SW 8.9 mph14.3 kmh 29.74 in1007.1 mb 0.00 in0.0 mm 0.00 in/hr0.0 mm/hr 0.00 in0.0 mm
08:15 AM 53.1°F11.7°C 30.0°F-1.1°C 41% 4.9 mph SW7.9 kmh SW 6.0 mph9.7 kmh 29.73 in1006.8 mb 0.00 in0.0 mm 0.00 in/hr0.0 mm/hr 0.00 in0.0 mm
08:20 AM 54.0°F12.2°C 30.3°F-0.9°C 40% 4.1 mph SW6.6 kmh SW 6.0 mph9.7 kmh 29.73 in1006.8 mb 0.00 in0.0 mm 0.00 in/hr0.0 mm/hr 0.00 in0.0 mm
08:25 AM 55.1°F12.8°C 30.5°F-0.8°C 39% 6.8 mph SW10.9 kmh SW 8.5 mph13.7 kmh 29.73 in1006.8 mb 0.00 in0.0 mm 0.00 in/hr0.0 mm/hr 0.00 in0.0 mm
08:30 AM 56.2°F13.4°C 31.4°F-0.3°C 39% 5.2 mph SW8.4 kmh SW 8.5 mph13.7 kmh 29.73 in1006.8 mb 0.00 in0.0 mm 0.00 in/hr0.0 mm/hr 0.00 in0.0 mm
08:35 AM 56.7°F13.7°C 30.5°F-0.8°C 37% 6.3 mph SW10.1 kmh SW 7.6 mph12.2 kmh 29.73 in1006.8 mb 0.00 in0.0 mm 0.00 in/hr0.0 mm/hr 0.00 in0.0 mm
08:40 AM 57.4°F14.1°C 30.5°F-0.8°C 36% 9.8 mph SW15.8 kmh SW 10.3 mph16.6 kmh 29.73 in1006.8 mb 0.00 in0.0 mm 0.00 in/hr0.0 mm/hr 0.00 in0.0 mm
08:45 AM 58.0°F14.4°C 29.5°F-1.4°C 34% 8.1 mph SSW13.0 kmh SSW 10.3 mph16.6 kmh 29.73 in1006.8 mb 0.00 in0.0 mm 0.00 in/hr0.0 mm/hr 0.00 in0.0 mm
08:50 AM 58.5°F14.7°C 30.1°F-1.1°C 34% 7.1 mph SW11.4 kmh SW 9.6 mph15.4 kmh 29.73 in1006.8 mb 0.00 in0.0 mm 0.00 in/hr0.0 mm/hr 0.00 in0.0 mm
08:55 AM 59.6°F15.3°C 31.0°F-0.6°C 34% 8.9 mph SW14.3 kmh SW 11.2 mph18.0 kmh 29.73 in1006.8 mb 0.00 in0.0 mm 0.00 in/hr0.0 mm/hr 0.00 in0.0 mm
09:01 AM 60.1°F15.6°C 30.7°F-0.7°C 33% 9.7 mph SW15.6 kmh SW 11.2 mph18.0 kmh 29.72 in1006.4 mb 0.00 in0.0 mm 0.00 in/hr0.0 mm/hr 0.00 in0.0 mm
09:06 AM 60.8°F16.0°C 30.6°F-0.8°C 32% 8.4 mph WSW13.5 kmh WSW 11.0 mph17.7 kmh 29.72 in1006.4 mb 0.00 in0.0 mm 0.00 in/hr0.0 mm/hr 0.00 in0.0 mm
09:10 AM 61.2°F16.2°C 30.3°F-0.9°C 31% 6.6 mph SW10.6 kmh SW 11.0 mph17.7 kmh 29.72 in1006.4 mb 0.00 in0.0 mm 0.00 in/hr0.0 mm/hr 0.00 in0.0 mm
09:15 AM 61.7°F16.5°C 30.7°F-0.7°C 31% 6.9 mph SW11.1 kmh SW 9.8 mph15.8 kmh 29.72 in1006.4 mb 0.00 in0.0 mm 0.00 in/hr0.0 mm/hr 0.00 in0.0 mm
09:20 AM 62.3°F16.8°C 31.1°F-0.5°C 31% 11.6 mph SW18.7 kmh SW 14.8 mph23.8 kmh 29.72 in1006.4 mb 0.00 in0.0 mm 0.00 in/hr0.0 mm/hr 0.00 in0.0 mm
09:25 AM 62.5°F16.9°C 30.6°F-0.8°C 30% 9.3 mph SW15.0 kmh SW 14.8 mph23.8 kmh 29.72 in1006.4 mb 0.00 in0.0 mm 0.00 in/hr0.0 mm/hr 0.00 in0.0 mm
09:30 AM 62.6°F17.0°C 30.8°F-0.7°C 30% 6.4 mph SW10.3 kmh SW 13.4 mph21.6 kmh 29.72 in1006.4 mb 0.00 in0.0 mm 0.00 in/hr0.0 mm/hr 0.00 in0.0 mm
09:35 AM 63.4°F17.4°C 31.4°F-0.3°C 30% 8.8 mph W14.2 kmh W 12.5 mph20.1 kmh 29.71 in1006.1 mb 0.00 in0.0 mm 0.00 in/hr0.0 mm/hr 0.00 in0.0 mm
09:40 AM 63.2°F17.3°C 26.4°F-3.1°C 25% 13.2 mph WSW21.2 kmh WSW 16.6 mph26.7 kmh 29.71 in1006.1 mb 0.00 in0.0 mm 0.00 in/hr0.0 mm/hr 0.00 in0.0 mm
09:45 AM 62.3°F16.8°C 27.5°F-2.5°C 27% 12.6 mph SW20.3 kmh SW 16.6 mph26.7 kmh 29.71 in1006.1 mb 0.00 in0.0 mm 0.00 in/hr0.0 mm/hr 0.00 in0.0 mm
09:50 AM 62.3°F16.8°C 27.5°F-2.5°C 27% 15.4 mph WSW24.8 kmh WSW 15.7 mph25.3 kmh 29.72 in1006.4 mb 0.00 in0.0 mm 0.00 in/hr0.0 mm/hr 0.00 in0.0 mm
09:55 AM 62.1°F16.7°C 26.5°F-3.1°C 26% 16.1 mph WNW25.9 kmh WNW 16.6 mph26.7 kmh 29.71 in1006.1 mb 0.00 in0.0 mm 0.00 in/hr0.0 mm/hr 0.00 in0.0 mm
10:01 AM 61.9°F16.6°C 27.3°F-2.6°C 27% 12.0 mph W19.3 kmh W 16.6 mph26.7 kmh 29.71 in1006.1 mb 0.00 in0.0 mm 0.00 in/hr0.0 mm/hr 0.00 in0.0 mm
10:06 AM 61.6°F16.4°C 26.9°F-2.8°C 27% 14.2 mph WSW22.9 kmh WSW 17.2 mph27.7 kmh 29.71 in1006.1 mb 0.00 in0.0 mm 0.00 in/hr0.0 mm/hr 0.00 in0.0 mm
10:11 AM 61.4°F16.3°C 27.7°F-2.4°C 28% 13.6 mph WSW21.9 kmh WSW 17.2 mph27.7 kmh 29.71 in1006.1 mb 0.00 in0.0 mm 0.00 in/hr0.0 mm/hr 0.00 in0.0 mm
10:16 AM 61.0°F16.1°C 26.5°F-3.1°C 27% 19.0 mph WSW30.6 kmh WSW 19.5 mph31.4 kmh 29.71 in1006.1 mb 0.00 in0.0 mm 0.00 in/hr0.0 mm/hr 0.00 in0.0 mm
10:21 AM 60.5°F15.8°C 27.0°F-2.8°C 28% 18.2 mph WSW29.3 kmh WSW 20.1 mph32.3 kmh 29.71 in1006.1 mb 0.00 in0.0 mm 0.00 in/hr0.0 mm/hr 0.00 in0.0 mm
10:26 AM 60.3°F15.7°C 26.8°F-2.9°C 28% 15.1 mph W24.3 kmh W 20.4 mph32.8 kmh 29.71 in1006.1 mb 0.00 in0.0 mm 0.00 in/hr0.0 mm/hr 0.00 in0.0 mm
10:31 AM 60.1°F15.6°C 26.6°F-3.0°C 28% 16.3 mph WSW26.2 kmh WSW 20.4 mph32.8 kmh 29.71 in1006.1 mb 0.00 in0.0 mm 0.00 in/hr0.0 mm/hr 0.00 in0.0 mm
10:35 AM 60.1°F15.6°C 26.6°F-3.0°C 28% 15.9 mph W25.6 kmh W 17.9 mph28.8 kmh 29.71 in1006.1 mb 0.00 in0.0 mm 0.00 in/hr0.0 mm/hr 0.00 in0.0 mm
10:40 AM 60.1°F15.6°C 28.6°F-1.9°C 30% 18.9 mph WNW30.4 kmh WNW 20.8 mph33.5 kmh 29.71 in1006.1 mb 0.00 in0.0 mm 0.00 in/hr0.0 mm/hr 0.00 in0.0 mm
10:45 AM 59.4°F15.2°C 28.7°F-1.8°C 31% 16.3 mph WNW26.2 kmh WNW 21.7 mph34.9 kmh 29.71 in1006.1 mb 0.00 in0.0 mm 0.00 in/hr0.0 mm/hr 0.00 in0.0 mm
10:50 AM 59.0°F15.0°C 29.2°F-1.6°C 32% 19.0 mph W30.6 kmh W 24.2 mph38.9 kmh 29.71 in1006.1 mb 0.00 in0.0 mm 0.00 in/hr0.0 mm/hr 0.00 in0.0 mm
10:55 AM 58.1°F14.5°C 29.7°F-1.3°C 34% 21.7 mph W34.9 kmh W 24.2 mph38.9 kmh 29.72 in1006.4 mb 0.00 in0.0 mm 0.00 in/hr0.0 mm/hr 0.00 in0.0 mm
11:01 AM 57.6°F14.2°C 30.6°F-0.8°C 36% 24.4 mph W39.3 kmh W 28.2 mph45.4 kmh 29.72 in1006.4 mb 0.00 in0.0 mm 0.00 in/hr0.0 mm/hr 0.00 in0.0 mm
11:06 AM 57.6°F14.2°C 30.6°F-0.8°C 36% 21.7 mph WSW34.9 kmh WSW 28.2 mph45.4 kmh 29.72 in1006.4 mb 0.00 in0.0 mm 0.00 in/hr0.0 mm/hr 0.00 in0.0 mm
11:11 AM 57.4°F14.1°C 31.1°F-0.5°C 37% 24.1 mph WNW38.8 kmh WNW 27.5 mph44.3 kmh 29.72 in1006.4 mb 0.00 in0.0 mm 0.00 in/hr0.0 mm/hr 0.00 in0.0 mm
11:16 AM 58.0°F14.4°C 31.7°F-0.2°C 37% 22.6 mph W36.4 kmh W 28.2 mph45.4 kmh 29.72 in1006.4 mb 0.00 in0.0 mm 0.00 in/hr0.0 mm/hr 0.00 in0.0 mm
11:21 AM 58.5°F14.7°C 32.1°F0.1°C 37% 22.8 mph SW36.7 kmh SW 31.1 mph50.1 kmh 29.72 in1006.4 mb 0.00 in0.0 mm 0.00 in/hr0.0 mm/hr 0.00 in0.0 mm
11:26 AM 58.7°F14.8°C 32.3°F0.2°C 37% 26.9 mph WSW43.3 kmh WSW 33.1 mph53.3 kmh 29.72 in1006.4 mb 0.00 in0.0 mm 0.00 in/hr0.0 mm/hr 0.00 in0.0 mm
11:31 AM 58.5°F14.7°C 32.1°F0.1°C 37% 26.3 mph W42.3 kmh W 33.1 mph53.3 kmh 29.73 in1006.8 mb 0.00 in0.0 mm 0.00 in/hr0.0 mm/hr 0.00 in0.0 mm
11:36 AM 58.0°F14.4°C 32.4°F0.2°C 38% 28.5 mph WSW45.9 kmh WSW 31.1 mph50.1 kmh 29.73 in1006.8 mb 0.00 in0.0 mm 0.00 in/hr0.0 mm/hr 0.00 in0.0 mm
11:41 AM 56.9°F13.8°C 32.1°F0.1°C 39% 27.6 mph WSW44.4 kmh WSW 31.1 mph50.1 kmh 29.74 in1007.1 mb 0.00 in0.0 mm 0.00 in/hr0.0 mm/hr 0.00 in0.0 mm
11:46 AM 55.8°F13.2°C 32.9°F0.5°C 42% 28.2 mph WSW45.4 kmh WSW 33.1 mph53.3 kmh 29.74 in1007.1 mb 0.00 in0.0 mm 0.00 in/hr0.0 mm/hr 0.00 in0.0 mm
11:51 AM 54.4°F12.4°C 32.2°F0.1°C 43% 25.6 mph WSW41.2 kmh WSW 33.1 mph53.3 kmh 29.75 in1007.5 mb 0.00 in0.0 mm 0.00 in/hr0.0 mm/hr 0.00 in0.0 mm
11:56 AM 53.3°F11.8°C 33.0°F0.6°C 46% 30.9 mph WSW49.7 kmh WSW 34.4 mph55.4 kmh 29.76 in1007.8 mb 0.00 in0.0 mm 0.00 in/hr0.0 mm/hr 0.00 in0.0 mm
12:01 PM 52.0°F11.1°C 32.3°F0.2°C 47% 23.9 mph WSW38.5 kmh WSW 34.4 mph55.4 kmh 29.76 in1007.8 mb 0.00 in0.0 mm 0.00 in/hr0.0 mm/hr 0.00 in0.0 mm
12:06 PM 50.6°F10.3°C 32.7°F0.4°C 50% 23.5 mph WSW37.8 kmh WSW 27.5 mph44.3 kmh 29.76 in1007.8 mb 0.00 in0.0 mm 0.00 in/hr0.0 mm/hr 0.00 in0.0 mm
12:11 PM 48.8°F9.3°C 33.3°F0.7°C 55% 24.9 mph WSW40.1 kmh WSW 27.5 mph44.3 kmh 29.77 in1008.1 mb 0.00 in0.0 mm 0.00 in/hr0.0 mm/hr 0.00 in0.0 mm
12:16 PM 47.7°F8.7°C 32.7°F0.4°C 56% 25.7 mph SW41.4 kmh SW 26.8 mph43.1 kmh 29.77 in1008.1 mb 0.00 in0.0 mm 0.00 in/hr0.0 mm/hr 0.00 in0.0 mm
12:21 PM 46.6°F8.1°C 32.6°F0.3°C 58% 28.4 mph SW45.7 kmh SW 30.9 mph49.7 kmh 29.77 in1008.1 mb 0.00 in0.0 mm 0.00 in/hr0.0 mm/hr 0.00 in0.0 mm
12:26 PM 45.7°F7.6°C 32.2°F0.1°C 59% 21.6 mph SW34.8 kmh SW 30.9 mph49.7 kmh 29.78 in1008.5 mb 0.00 in0.0 mm 0.00 in/hr0.0 mm/hr 0.00 in0.0 mm
12:31 PM 44.6°F7.0°C 32.0°F0.0°C 61% 26.2 mph SW42.2 kmh SW 29.5 mph47.5 kmh 29.78 in1008.5 mb 0.00 in0.0 mm 0.00 in/hr0.0 mm/hr 0.00 in0.0 mm
12:36 PM 43.7°F6.5°C 32.8°F0.4°C 65% 27.5 mph SW44.3 kmh SW 30.4 mph48.9 kmh 29.79 in1008.8 mb 0.00 in0.0 mm 0.00 in/hr0.0 mm/hr 0.00 in0.0 mm
12:41 PM 42.7°F5.9°C 33.3°F0.7°C 69% 18.5 mph WSW29.8 kmh WSW 30.4 mph48.9 kmh 29.79 in1008.8 mb 0.00 in0.0 mm 0.00 in/hr0.0 mm/hr 0.00 in0.0 mm
12:46 PM 41.9°F5.5°C 33.3°F0.7°C 71% 24.9 mph WSW40.1 kmh WSW 27.3 mph43.9 kmh 29.79 in1008.8 mb 0.00 in0.0 mm 0.00 in/hr0.0 mm/hr 0.00 in0.0 mm
12:51 PM 41.0°F5.0°C 32.7°F0.4°C 72% 17.4 mph WSW28.0 kmh WSW 28.9 mph46.5 kmh 29.80 in1009.1 mb 0.01 in0.3 mm 0.12 in/hr3.0 mm/hr 0.01 in0.3 mm
12:56 PM 40.5°F4.7°C 32.9°F0.5°C 74% 22.6 mph WSW36.4 kmh WSW 28.9 mph46.5 kmh 29.80 in1009.1 mb 0.01 in0.3 mm 0.00 in/hr0.0 mm/hr 0.01 in0.3 mm
01:01 PM 40.3°F4.6°C 32.9°F0.5°C 75% 23.0 mph WSW37.0 kmh WSW 23.9 mph38.5 kmh 29.80 in1009.1 mb 0.01 in0.3 mm 0.00 in/hr0.0 mm/hr 0.01 in0.3 mm
01:06 PM 40.1°F4.5°C 32.8°F0.4°C 75% 19.8 mph SW31.9 kmh SW 23.9 mph38.5 kmh 29.80 in1009.1 mb 0.02 in0.5 mm 0.12 in/hr3.0 mm/hr 0.02 in0.5 mm
01:11 PM 40.0°F4.4°C 32.9°F0.5°C 76% 15.6 mph WSW25.1 kmh WSW 23.7 mph38.1 kmh 29.79 in1008.8 mb 0.02 in0.5 mm 0.00 in/hr0.0 mm/hr 0.02 in0.5 mm
01:16 PM 40.1°F4.5°C 33.5°F0.8°C 77% 16.8 mph SW27.0 kmh SW 21.9 mph35.2 kmh 29.79 in1008.8 mb 0.02 in0.5 mm 0.00 in/hr0.0 mm/hr 0.02 in0.5 mm
01:21 PM 40.3°F4.6°C 33.7°F0.9°C 77% 12.1 mph WSW19.5 kmh WSW 20.8 mph33.5 kmh 29.79 in1008.8 mb 0.02 in0.5 mm 0.00 in/hr0.0 mm/hr 0.02 in0.5 mm
01:26 PM 40.9°F4.9°C 33.9°F1.1°C 76% 10.4 mph NW16.7 kmh NW 15.7 mph25.3 kmh 29.79 in1008.8 mb 0.02 in0.5 mm 0.00 in/hr0.0 mm/hr 0.02 in0.5 mm
01:31 PM 41.4°F5.2°C 34.4°F1.3°C 76% 13.3 mph SW21.4 kmh SW 15.7 mph25.3 kmh 29.79 in1008.8 mb 0.02 in0.5 mm 0.00 in/hr0.0 mm/hr 0.02 in0.5 mm
01:36 PM 41.6°F5.3°C 34.2°F1.2°C 75% 12.1 mph SW19.5 kmh SW 15.4 mph24.8 kmh 29.80 in1009.1 mb 0.02 in0.5 mm 0.00 in/hr0.0 mm/hr 0.02 in0.5 mm
01:41 PM 41.9°F5.5°C 34.6°F1.4°C 75% 13.9 mph SW22.4 kmh SW 14.1 mph22.7 kmh 29.80 in1009.1 mb 0.02 in0.5 mm 0.00 in/hr0.0 mm/hr 0.02 in0.5 mm
01:46 PM 42.1°F5.6°C 34.4°F1.3°C 74% 11.2 mph SSW18.0 kmh SSW 14.1 mph22.7 kmh 29.81 in1009.5 mb 0.02 in0.5 mm 0.00 in/hr0.0 mm/hr 0.02 in0.5 mm
01:51 PM 42.1°F5.6°C 34.4°F1.3°C 74% 12.5 mph SSW20.1 kmh SSW 18.3 mph29.5 kmh 29.80 in1009.1 mb 0.01 in0.3 mm 0.00 in/hr0.0 mm/hr 0.02 in0.5 mm
01:56 PM 42.1°F5.6°C 34.4°F1.3°C 74% 12.6 mph S20.3 kmh S 18.3 mph29.5 kmh 29.80 in1009.1 mb 0.01 in0.3 mm 0.00 in/hr0.0 mm/hr 0.02 in0.5 mm
02:02 PM 42.1°F5.6°C 34.4°F1.3°C 74% 9.1 mph SSE14.6 kmh SSE 16.3 mph26.2 kmh 29.80 in1009.1 mb 0.01 in0.3 mm 0.00 in/hr0.0 mm/hr 0.02 in0.5 mm
02:07 PM 42.1°F5.6°C 33.8°F1.0°C 72% 9.0 mph SE14.5 kmh SE 16.3 mph26.2 kmh 29.80 in1009.1 mb 0.00 in0.0 mm 0.00 in/hr0.0 mm/hr 0.02 in0.5 mm
02:12 PM 42.1°F5.6°C 33.5°F0.8°C 71% 12.4 mph ESE20.0 kmh ESE 14.3 mph23.0 kmh 29.80 in1009.1 mb 0.00 in0.0 mm 0.00 in/hr0.0 mm/hr 0.02 in0.5 mm
02:17 PM 41.9°F5.5°C 33.6°F0.9°C 72% 11.2 mph SE18.0 kmh SE 14.3 mph23.0 kmh 29.81 in1009.5 mb 0.00 in0.0 mm 0.00 in/hr0.0 mm/hr 0.02 in0.5 mm
02:21 PM 41.8°F5.4°C 33.8°F1.0°C 73% 9.9 mph SSE15.9 kmh SSE 13.0 mph20.9 kmh 29.81 in1009.5 mb 0.00 in0.0 mm 0.00 in/hr0.0 mm/hr 0.02 in0.5 mm
02:26 PM 41.4°F5.2°C 33.7°F0.9°C 74% 12.4 mph SW20.0 kmh SW 17.2 mph27.7 kmh 29.81 in1009.5 mb 0.00 in0.0 mm 0.00 in/hr0.0 mm/hr 0.02 in0.5 mm
02:31 PM 41.4°F5.2°C 33.7°F0.9°C 74% 11.0 mph WSW17.7 kmh WSW 17.2 mph27.7 kmh 29.81 in1009.5 mb 0.01 in0.3 mm 0.12 in/hr3.0 mm/hr 0.03 in0.8 mm
02:36 PM 41.2°F5.1°C 33.5°F0.8°C 74% 14.3 mph SW23.0 kmh SW 16.1 mph25.9 kmh 29.81 in1009.5 mb 0.01 in0.3 mm 0.00 in/hr0.0 mm/hr 0.03 in0.8 mm
02:41 PM 40.9°F4.9°C 33.1°F0.6°C 74% 11.3 mph SW18.2 kmh SW 16.1 mph25.9 kmh 29.82 in1009.8 mb 0.02 in0.5 mm 0.12 in/hr3.0 mm/hr 0.04 in1.0 mm
02:46 PM 39.8°F4.3°C 32.5°F0.3°C 75% 18.6 mph SW29.9 kmh SW 21.9 mph35.2 kmh 29.83 in1010.2 mb 0.03 in0.8 mm 0.12 in/hr3.0 mm/hr 0.05 in1.3 mm
02:51 PM 38.5°F3.6°C 32.3°F0.2°C 78% 20.3 mph WSW32.7 kmh WSW 29.5 mph47.5 kmh 29.83 in1010.2 mb 0.03 in0.8 mm 0.00 in/hr0.0 mm/hr 0.05 in1.3 mm
02:56 PM 38.0°F3.3°C 31.4°F-0.3°C 77% 18.8 mph WSW30.3 kmh WSW 29.5 mph47.5 kmh 29.83 in1010.2 mb 0.03 in0.8 mm 0.00 in/hr0.0 mm/hr 0.05 in1.3 mm
03:02 PM 38.0°F3.3°C 31.8°F-0.1°C 78% 12.8 mph W20.6 kmh W 21.9 mph35.2 kmh 29.83 in1010.2 mb 0.03 in0.8 mm 0.00 in/hr0.0 mm/hr 0.05 in1.3 mm
03:07 PM 38.2°F3.4°C 32.0°F0.0°C 78% 13.1 mph SW21.1 kmh SW 20.1 mph32.3 kmh 29.83 in1010.2 mb 0.03 in0.8 mm 0.00 in/hr0.0 mm/hr 0.05 in1.3 mm
03:12 PM 38.2°F3.4°C 32.0°F0.0°C 78% 10.4 mph SW16.7 kmh SW 20.1 mph32.3 kmh 29.83 in1010.2 mb 0.03 in0.8 mm 0.00 in/hr0.0 mm/hr 0.05 in1.3 mm
03:17 PM 38.3°F3.5°C 31.8°F-0.1°C 77% 4.9 mph SW7.9 kmh SW 15.0 mph24.1 kmh 29.83 in1010.2 mb 0.03 in0.8 mm 0.00 in/hr0.0 mm/hr 0.05 in1.3 mm
03:22 PM 38.7°F3.7°C 32.5°F0.3°C 78% 3.6 mph S5.8 kmh S 6.9 mph11.1 kmh 29.83 in1010.2 mb 0.03 in0.8 mm 0.00 in/hr0.0 mm/hr 0.05 in1.3 mm
03:27 PM 39.2°F4.0°C 32.9°F0.5°C 78% 4.1 mph SE6.6 kmh SE 6.9 mph11.1 kmh 29.83 in1010.2 mb 0.02 in0.5 mm 0.00 in/hr0.0 mm/hr 0.05 in1.3 mm
03:32 PM 39.4°F4.1°C 32.8°F0.4°C 77% 3.5 mph SE5.6 kmh SE 4.7 mph7.6 kmh 29.83 in1010.2 mb 0.02 in0.5 mm 0.00 in/hr0.0 mm/hr 0.05 in1.3 mm
03:37 PM 39.8°F4.3°C 33.1°F0.6°C 77% 4.2 mph ESE6.8 kmh ESE 5.6 mph9.0 kmh 29.83 in1010.2 mb 0.02 in0.5 mm 0.00 in/hr0.0 mm/hr 0.05 in1.3 mm
03:42 PM 40.0°F4.4°C 32.9°F0.5°C 76% 3.0 mph E4.8 kmh E 5.6 mph9.0 kmh 29.83 in1010.2 mb 0.01 in0.3 mm 0.00 in/hr0.0 mm/hr 0.05 in1.3 mm
03:47 PM 40.3°F4.6°C 32.9°F0.5°C 75% 3.3 mph ESE5.3 kmh ESE 4.0 mph6.4 kmh 29.83 in1010.2 mb 0.00 in0.0 mm 0.00 in/hr0.0 mm/hr 0.05 in1.3 mm
03:51 PM 40.7°F4.8°C 33.0°F0.6°C 74% 11.9 mph SE19.2 kmh SE 12.5 mph20.1 kmh 29.83 in1010.2 mb 0.00 in0.0 mm 0.00 in/hr0.0 mm/hr 0.05 in1.3 mm
03:56 PM 40.3°F4.6°C 32.7°F0.4°C 74% 11.9 mph SE19.2 kmh SE 13.0 mph20.9 kmh 29.84 in1010.5 mb 0.00 in0.0 mm 0.00 in/hr0.0 mm/hr 0.05 in1.3 mm
04:02 PM 40.0°F4.4°C 32.3°F0.2°C 74% 13.9 mph SE22.4 kmh SE 15.7 mph25.3 kmh 29.83 in1010.2 mb 0.00 in0.0 mm 0.00 in/hr0.0 mm/hr 0.05 in1.3 mm
04:07 PM 39.2°F4.0°C 32.0°F0.0°C 75% 9.7 mph SE15.6 kmh SE 15.7 mph25.3 kmh 29.83 in1010.2 mb 0.00 in0.0 mm 0.00 in/hr0.0 mm/hr 0.05 in1.3 mm
04:12 PM 39.2°F4.0°C 32.0°F0.0°C 75% 8.4 mph ESE13.5 kmh ESE 14.3 mph23.0 kmh 29.83 in1010.2 mb 0.00 in0.0 mm 0.00 in/hr0.0 mm/hr 0.05 in1.3 mm
04:17 PM 39.2°F4.0°C 32.3°F0.2°C 76% 8.5 mph ESE13.7 kmh ESE 10.3 mph16.6 kmh 29.83 in1010.2 mb 0.00 in0.0 mm 0.00 in/hr0.0 mm/hr 0.05 in1.3 mm
04:22 PM 39.4°F4.1°C 33.1°F0.6°C 78% 10.6 mph E17.1 kmh E 10.7 mph17.2 kmh 29.83 in1010.2 mb 0.00 in0.0 mm 0.00 in/hr0.0 mm/hr 0.05 in1.3 mm
04:27 PM 39.2°F4.0°C 32.7°F0.4°C 77% 6.1 mph E9.8 kmh E 10.7 mph17.2 kmh 29.83 in1010.2 mb 0.00 in0.0 mm 0.00 in/hr0.0 mm/hr 0.05 in1.3 mm
04:32 PM 39.4°F4.1°C 33.1°F0.6°C 78% 8.4 mph E13.5 kmh E 8.9 mph14.3 kmh 29.83 in1010.2 mb 0.00 in0.0 mm 0.00 in/hr0.0 mm/hr 0.05 in1.3 mm
04:37 PM 39.6°F4.2°C 32.9°F0.5°C 77% 4.1 mph S6.6 kmh S 8.9 mph14.3 kmh 29.83 in1010.2 mb 0.00 in0.0 mm 0.00 in/hr0.0 mm/hr 0.05 in1.3 mm
04:42 PM 40.0°F4.4°C 32.9°F0.5°C 76% 6.2 mph SW10.0 kmh SW 6.7 mph10.8 kmh 29.83 in1010.2 mb 0.00 in0.0 mm 0.00 in/hr0.0 mm/hr 0.05 in1.3 mm
04:47 PM 40.1°F4.5°C 32.8°F0.4°C 75% 5.4 mph SW8.7 kmh SW 9.2 mph14.8 kmh 29.83 in1010.2 mb 0.00 in0.0 mm 0.00 in/hr0.0 mm/hr 0.05 in1.3 mm
04:52 PM 40.5°F4.7°C 33.1°F0.6°C 75% 7.8 mph SW12.6 kmh SW 9.6 mph15.4 kmh 29.83 in1010.2 mb 0.00 in0.0 mm 0.00 in/hr0.0 mm/hr 0.05 in1.3 mm
04:57 PM 40.7°F4.8°C 33.3°F0.7°C 75% 9.4 mph SW15.1 kmh SW 10.1 mph16.3 kmh 29.83 in1010.2 mb 0.00 in0.0 mm 0.00 in/hr0.0 mm/hr 0.05 in1.3 mm
05:03 PM 41.0°F5.0°C 34.0°F1.1°C 76% 8.5 mph SW13.7 kmh SW 10.1 mph16.3 kmh 29.83 in1010.2 mb 0.00 in0.0 mm 0.00 in/hr0.0 mm/hr 0.05 in1.3 mm
05:08 PM 41.2°F5.1°C 33.8°F1.0°C 75% 6.8 mph SSW10.9 kmh SSW 9.4 mph15.1 kmh 29.84 in1010.5 mb 0.00 in0.0 mm 0.00 in/hr0.0 mm/hr 0.05 in1.3 mm
05:13 PM 41.2°F5.1°C 33.5°F0.8°C 74% 13.5 mph SW21.7 kmh SW 14.5 mph23.3 kmh 29.84 in1010.5 mb 0.00 in0.0 mm 0.00 in/hr0.0 mm/hr 0.05 in1.3 mm
05:18 PM 40.9°F4.9°C 33.5°F0.8°C 75% 13.2 mph SW21.2 kmh SW 14.5 mph23.3 kmh 29.84 in1010.5 mb 0.00 in0.0 mm 0.00 in/hr0.0 mm/hr 0.05 in1.3 mm
05:23 PM 40.5°F4.7°C 33.1°F0.6°C 75% 9.9 mph SSW15.9 kmh SSW 14.3 mph23.0 kmh 29.83 in1010.2 mb 0.01 in0.3 mm 0.12 in/hr3.0 mm/hr 0.06 in1.5 mm
05:28 PM 40.3°F4.6°C 33.3°F0.7°C 76% 9.4 mph SW15.1 kmh SW 11.9 mph19.2 kmh 29.83 in1010.2 mb 0.01 in0.3 mm 0.00 in/hr0.0 mm/hr 0.06 in1.5 mm
05:33 PM 40.5°F4.7°C 33.5°F0.8°C 76% 9.8 mph SW15.8 kmh SW 12.1 mph19.5 kmh 29.83 in1010.2 mb 0.01 in0.3 mm 0.00 in/hr0.0 mm/hr 0.06 in1.5 mm
05:38 PM 40.7°F4.8°C 33.7°F0.9°C 76% 9.2 mph SSW14.8 kmh SSW 12.1 mph19.5 kmh 29.84 in1010.5 mb 0.01 in0.3 mm 0.00 in/hr0.0 mm/hr 0.06 in1.5 mm
05:43 PM 40.9°F4.9°C 33.5°F0.8°C 75% 6.6 mph S10.6 kmh S 9.2 mph14.8 kmh 29.84 in1010.5 mb 0.01 in0.3 mm 0.00 in/hr0.0 mm/hr 0.06 in1.5 mm
05:48 PM 41.0°F5.0°C 33.7°F0.9°C 75% 7.6 mph SW12.2 kmh SW 7.6 mph12.2 kmh 29.84 in1010.5 mb 0.01 in0.3 mm 0.00 in/hr0.0 mm/hr 0.06 in1.5 mm
05:53 PM 40.9°F4.9°C 33.1°F0.6°C 74% 9.5 mph SW15.3 kmh SW 9.8 mph15.8 kmh 29.84 in1010.5 mb 0.01 in0.3 mm 0.00 in/hr0.0 mm/hr 0.06 in1.5 mm
05:58 PM 40.7°F4.8°C 33.0°F0.6°C 74% 14.1 mph SW22.7 kmh SW 15.0 mph24.1 kmh 29.83 in1010.2 mb 0.01 in0.3 mm 0.00 in/hr0.0 mm/hr 0.06 in1.5 mm
06:03 PM 40.3°F4.6°C 32.7°F0.4°C 74% 12.3 mph SW19.8 kmh SW 15.0 mph24.1 kmh 29.83 in1010.2 mb 0.01 in0.3 mm 0.00 in/hr0.0 mm/hr 0.06 in1.5 mm
06:08 PM 40.1°F4.5°C 32.5°F0.3°C 74% 9.0 mph SW14.5 kmh SW 15.0 mph24.1 kmh 29.83 in1010.2 mb 0.01 in0.3 mm 0.00 in/hr0.0 mm/hr 0.06 in1.5 mm
06:13 PM 40.0°F4.4°C 32.3°F0.2°C 74% 12.2 mph SW19.6 kmh SW 12.8 mph20.6 kmh 29.83 in1010.2 mb 0.01 in0.3 mm 0.00 in/hr0.0 mm/hr 0.06 in1.5 mm
06:18 PM 39.8°F4.3°C 32.1°F0.1°C 74% 10.3 mph SSW16.6 kmh SSW 15.7 mph25.3 kmh 29.84 in1010.5 mb 0.00 in0.0 mm 0.00 in/hr0.0 mm/hr 0.06 in1.5 mm
06:23 PM 39.8°F4.3°C 31.8°F-0.1°C 73% 13.8 mph SW22.2 kmh SW 15.7 mph25.3 kmh 29.84 in1010.5 mb 0.00 in0.0 mm 0.00 in/hr0.0 mm/hr 0.06 in1.5 mm
06:28 PM 39.6°F4.2°C 32.0°F0.0°C 74% 15.6 mph SW25.1 kmh SW 15.9 mph25.6 kmh 29.84 in1010.5 mb 0.00 in0.0 mm 0.00 in/hr0.0 mm/hr 0.06 in1.5 mm
06:33 PM 39.6°F4.2°C 32.0°F0.0°C 74% 12.5 mph WSW20.1 kmh WSW 15.9 mph25.6 kmh 29.85 in1010.8 mb 0.00 in0.0 mm 0.00 in/hr0.0 mm/hr 0.06 in1.5 mm
06:38 PM 39.1°F3.9°C 31.8°F-0.1°C 75% 17.4 mph SSW28.0 kmh SSW 21.9 mph35.2 kmh 29.85 in1010.8 mb 0.00 in0.0 mm 0.00 in/hr0.0 mm/hr 0.06 in1.5 mm
06:43 PM 38.5°F3.6°C 31.6°F-0.2°C 76% 12.3 mph SW19.8 kmh SW 21.9 mph35.2 kmh 29.85 in1010.8 mb 0.00 in0.0 mm 0.00 in/hr0.0 mm/hr 0.06 in1.5 mm
06:48 PM 38.3°F3.5°C 31.8°F-0.1°C 77% 11.6 mph SW18.7 kmh SW 16.6 mph26.7 kmh 29.85 in1010.8 mb 0.00 in0.0 mm 0.00 in/hr0.0 mm/hr 0.06 in1.5 mm
06:53 PM 38.2°F3.4°C 31.2°F-0.4°C 76% 9.7 mph SW15.6 kmh SW 16.1 mph25.9 kmh 29.86 in1011.2 mb 0.00 in0.0 mm 0.00 in/hr0.0 mm/hr 0.06 in1.5 mm
06:58 PM 37.8°F3.2°C 30.9°F-0.6°C 76% 7.3 mph WSW11.7 kmh WSW 16.1 mph25.9 kmh 29.86 in1011.2 mb 0.00 in0.0 mm 0.00 in/hr0.0 mm/hr 0.06 in1.5 mm
07:04 PM 37.6°F3.1°C 31.1°F-0.5°C 77% 8.3 mph WSW13.4 kmh WSW 11.4 mph18.3 kmh 29.86 in1011.2 mb 0.00 in0.0 mm 0.00 in/hr0.0 mm/hr 0.06 in1.5 mm
07:09 PM 37.4°F3.0°C 30.9°F-0.6°C 77% 9.1 mph SW14.6 kmh SW 11.0 mph17.7 kmh 29.86 in1011.2 mb 0.00 in0.0 mm 0.00 in/hr0.0 mm/hr 0.06 in1.5 mm
07:13 PM 37.3°F2.9°C 31.1°F-0.5°C 78% 7.8 mph SW12.6 kmh SW 11.0 mph17.7 kmh 29.86 in1011.2 mb 0.00 in0.0 mm 0.00 in/hr0.0 mm/hr 0.06 in1.5 mm
07:18 PM 37.1°F2.8°C 31.1°F-0.5°C 79% 8.1 mph WSW13.0 kmh WSW 11.0 mph17.7 kmh 29.86 in1011.2 mb 0.00 in0.0 mm 0.00 in/hr0.0 mm/hr 0.06 in1.5 mm
07:23 PM 37.1°F2.8°C 31.5°F-0.3°C 80% 8.1 mph WSW13.0 kmh WSW 9.4 mph15.1 kmh 29.86 in1011.2 mb 0.00 in0.0 mm 0.00 in/hr0.0 mm/hr 0.06 in1.5 mm
07:28 PM 36.9°F2.7°C 31.3°F-0.4°C 80% 5.2 mph WSW8.4 kmh WSW 9.4 mph15.1 kmh 29.86 in1011.2 mb 0.00 in0.0 mm 0.00 in/hr0.0 mm/hr 0.06 in1.5 mm
07:33 PM 36.9°F2.7°C 31.0°F-0.6°C 79% 1.7 mph WSW2.7 kmh WSW 8.9 mph14.3 kmh 29.86 in1011.2 mb 0.00 in0.0 mm 0.00 in/hr0.0 mm/hr 0.06 in1.5 mm
07:38 PM 36.9°F2.7°C 31.0°F-0.6°C 79% 1.8 mph SW2.9 kmh SW 5.6 mph9.0 kmh 29.87 in1011.5 mb 0.00 in0.0 mm 0.00 in/hr0.0 mm/hr 0.06 in1.5 mm
07:43 PM 36.9°F2.7°C 31.0°F-0.6°C 79% 1.5 mph S2.4 kmh S 3.6 mph5.8 kmh 29.87 in1011.5 mb 0.00 in0.0 mm 0.00 in/hr0.0 mm/hr 0.06 in1.5 mm
07:48 PM 36.9°F2.7°C 31.0°F-0.6°C 79% 1.1 mph SSW1.8 kmh SSW 1.8 mph2.9 kmh 29.88 in1011.9 mb 0.00 in0.0 mm 0.00 in/hr0.0 mm/hr 0.06 in1.5 mm
07:53 PM 36.7°F2.6°C 30.5°F-0.8°C 78% 0.4 mph W0.6 kmh W 1.6 mph2.6 kmh 29.88 in1011.9 mb 0.00 in0.0 mm 0.00 in/hr0.0 mm/hr 0.06 in1.5 mm
07:58 PM 36.7°F2.6°C 30.5°F-0.8°C 78% 1.1 mph SSW1.8 kmh SSW 1.8 mph2.9 kmh 29.89 in1012.2 mb 0.00 in0.0 mm 0.00 in/hr0.0 mm/hr 0.06 in1.5 mm
08:04 PM 36.5°F2.5°C 30.3°F-0.9°C 78% 2.7 mph SW4.3 kmh SW 3.8 mph6.1 kmh 29.89 in1012.2 mb 0.00 in0.0 mm 0.00 in/hr0.0 mm/hr 0.06 in1.5 mm
08:09 PM 36.4°F2.4°C 30.2°F-1.0°C 78% 3.3 mph NNE5.3 kmh NNE 4.3 mph6.9 kmh 29.89 in1012.2 mb 0.00 in0.0 mm 0.00 in/hr0.0 mm/hr 0.06 in1.5 mm
08:14 PM 36.4°F2.4°C 30.2°F-1.0°C 78% 3.3 mph WNW5.3 kmh WNW 4.3 mph6.9 kmh 29.89 in1012.2 mb 0.00 in0.0 mm 0.00 in/hr0.0 mm/hr 0.06 in1.5 mm
08:19 PM 36.4°F2.4°C 30.2°F-1.0°C 78% 0.7 mph W1.1 kmh W 3.6 mph5.8 kmh 29.90 in1012.5 mb 0.00 in0.0 mm 0.00 in/hr0.0 mm/hr 0.06 in1.5 mm
08:24 PM 36.4°F2.4°C 29.8°F-1.2°C 77% 4.9 mph WSW7.9 kmh WSW 6.3 mph10.1 kmh 29.90 in1012.5 mb 0.00 in0.0 mm 0.00 in/hr0.0 mm/hr 0.06 in1.5 mm
08:29 PM 36.7°F2.6°C 30.5°F-0.8°C 78% 9.9 mph SW15.9 kmh SW 11.6 mph18.7 kmh 29.91 in1012.9 mb 0.00 in0.0 mm 0.00 in/hr0.0 mm/hr 0.06 in1.5 mm
08:34 PM 36.9°F2.7°C 30.7°F-0.7°C 78% 0.2 mph NW0.3 kmh NW 11.6 mph18.7 kmh 29.90 in1012.5 mb 0.00 in0.0 mm 0.00 in/hr0.0 mm/hr 0.06 in1.5 mm
08:39 PM 37.1°F2.8°C 30.5°F-0.8°C 77% 1.8 mph SW2.9 kmh SW 6.0 mph9.7 kmh 29.90 in1012.5 mb 0.00 in0.0 mm 0.00 in/hr0.0 mm/hr 0.06 in1.5 mm
08:44 PM 36.9°F2.7°C 30.3°F-0.9°C 77% 5.9 mph N9.5 kmh N 7.8 mph12.6 kmh 29.91 in1012.9 mb 0.00 in0.0 mm 0.00 in/hr0.0 mm/hr 0.06 in1.5 mm
08:49 PM 36.7°F2.6°C 30.2°F-1.0°C 77% 6.4 mph NW10.3 kmh NW 8.9 mph14.3 kmh 29.91 in1012.9 mb 0.00 in0.0 mm 0.00 in/hr0.0 mm/hr 0.06 in1.5 mm
08:54 PM 36.5°F2.5°C 30.0°F-1.1°C 77% 4.1 mph W6.6 kmh W 8.9 mph14.3 kmh 29.91 in1012.9 mb 0.00 in0.0 mm 0.00 in/hr0.0 mm/hr 0.06 in1.5 mm
08:58 PM 36.4°F2.4°C 29.5°F-1.4°C 76% 3.7 mph SW6.0 kmh SW 6.3 mph10.1 kmh 29.91 in1012.9 mb 0.00 in0.0 mm 0.00 in/hr0.0 mm/hr 0.06 in1.5 mm
09:04 PM 36.2°F2.3°C 29.4°F-1.4°C 76% 2.5 mph WSW4.0 kmh WSW 4.7 mph7.6 kmh 29.92 in1013.2 mb 0.00 in0.0 mm 0.00 in/hr0.0 mm/hr 0.06 in1.5 mm
09:09 PM 36.0°F2.2°C 29.2°F-1.6°C 76% 2.8 mph SW4.5 kmh SW 4.7 mph7.6 kmh 29.92 in1013.2 mb 0.00 in0.0 mm 0.00 in/hr0.0 mm/hr 0.06 in1.5 mm
09:14 PM 35.6°F2.0°C 28.8°F-1.8°C 76% 1.1 mph SW1.8 kmh SW 3.4 mph5.5 kmh 29.92 in1013.2 mb 0.00 in0.0 mm 0.00 in/hr0.0 mm/hr 0.06 in1.5 mm
09:19 PM 35.6°F2.0°C 28.8°F-1.8°C 76% Calm Calm 1.3 mph2.1 kmh 29.92 in1013.2 mb 0.00 in0.0 mm 0.00 in/hr0.0 mm/hr 0.06 in1.5 mm
09:24 PM 35.3°F1.8°C 28.5°F-1.9°C 76% Calm Calm -- 29.93 in1013.5 mb 0.00 in0.0 mm 0.00 in/hr0.0 mm/hr 0.06 in1.5 mm
09:29 PM 34.9°F1.6°C 28.1°F-2.2°C 76% 0.8 mph SSE1.3 kmh SSE 1.1 mph1.8 kmh 29.93 in1013.5 mb 0.00 in0.0 mm 0.00 in/hr0.0 mm/hr 0.06 in1.5 mm
09:34 PM 34.6°F1.4°C 27.7°F-2.4°C 76% 1.6 mph S2.6 kmh S 2.5 mph4.0 kmh 29.93 in1013.5 mb 0.00 in0.0 mm 0.00 in/hr0.0 mm/hr 0.06 in1.5 mm
09:39 PM 34.2°F1.2°C 27.4°F-2.6°C 76% 2.1 mph S3.4 kmh S 2.5 mph4.0 kmh 29.93 in1013.5 mb 0.00 in0.0 mm 0.00 in/hr0.0 mm/hr 0.06 in1.5 mm
09:44 PM 34.0°F1.1°C 27.2°F-2.7°C 76% 0.8 mph ESE1.3 kmh ESE 2.5 mph4.0 kmh 29.93 in1013.5 mb 0.00 in0.0 mm 0.00 in/hr0.0 mm/hr 0.06 in1.5 mm
09:49 PM 33.8°F1.0°C 27.0°F-2.8°C 76% 1.5 mph S2.4 kmh S 2.5 mph4.0 kmh 29.93 in1013.5 mb 0.00 in0.0 mm 0.00 in/hr0.0 mm/hr 0.06 in1.5 mm
09:54 PM 33.7°F0.9°C 26.8°F-2.9°C 76% Calm Calm 2.5 mph4.0 kmh 29.93 in1013.5 mb 0.00 in0.0 mm 0.00 in/hr0.0 mm/hr 0.06 in1.5 mm
09:59 PM 33.5°F0.8°C 26.6°F-3.0°C 76% Calm Calm 2.5 mph4.0 kmh 29.94 in1013.9 mb 0.00 in0.0 mm 0.00 in/hr0.0 mm/hr 0.06 in1.5 mm
10:04 PM 33.5°F0.8°C 27.0°F-2.8°C 77% Calm Calm 1.3 mph2.1 kmh 29.94 in1013.9 mb 0.00 in0.0 mm 0.00 in/hr0.0 mm/hr 0.06 in1.5 mm
10:09 PM 33.3°F0.7°C 26.5°F-3.1°C 76% 1.2 mph SW1.9 kmh SW 2.2 mph3.5 kmh 29.94 in1013.9 mb 0.00 in0.0 mm 0.00 in/hr0.0 mm/hr 0.06 in1.5 mm
10:14 PM 33.1°F0.6°C 26.6°F-3.0°C 77% 0.4 mph SW0.6 kmh SW 2.2 mph3.5 kmh 29.94 in1013.9 mb 0.00 in0.0 mm 0.00 in/hr0.0 mm/hr 0.06 in1.5 mm
10:19 PM 32.9°F0.5°C 26.5°F-3.1°C 77% 0.4 mph SW0.6 kmh SW 1.6 mph2.6 kmh 29.94 in1013.9 mb 0.00 in0.0 mm 0.00 in/hr0.0 mm/hr 0.06 in1.5 mm
10:24 PM 32.8°F0.4°C 26.3°F-3.2°C 77% Calm Calm 0.7 mph1.1 kmh 29.94 in1013.9 mb 0.00 in0.0 mm 0.00 in/hr0.0 mm/hr 0.06 in1.5 mm
10:29 PM 32.8°F0.4°C 26.3°F-3.2°C 77% Calm Calm -- 29.94 in1013.9 mb 0.00 in0.0 mm 0.00 in/hr0.0 mm/hr 0.06 in1.5 mm
10:34 PM 32.6°F0.3°C 26.2°F-3.2°C 77% 0.8 mph SW1.3 kmh SW 1.3 mph2.1 kmh 29.94 in1013.9 mb 0.00 in0.0 mm 0.00 in/hr0.0 mm/hr 0.06 in1.5 mm
10:39 PM 32.4°F0.2°C 26.0°F-3.3°C 77% 3.3 mph SW5.3 kmh SW 4.0 mph6.4 kmh 29.94 in1013.9 mb 0.00 in0.0 mm 0.00 in/hr0.0 mm/hr 0.06 in1.5 mm
10:44 PM 32.0°F0.0°C 25.7°F-3.5°C 77% 3.1 mph SW5.0 kmh SW 4.0 mph6.4 kmh 29.94 in1013.9 mb 0.00 in0.0 mm 0.00 in/hr0.0 mm/hr 0.06 in1.5 mm
10:49 PM 31.9°F-0.1°C 25.5°F-3.6°C 77% 2.5 mph SSW4.0 kmh SSW 4.0 mph6.4 kmh 29.94 in1013.9 mb 0.00 in0.0 mm 0.00 in/hr0.0 mm/hr 0.06 in1.5 mm
10:54 PM 31.7°F-0.2°C 25.7°F-3.5°C 78% 0.8 mph S1.3 kmh S 2.9 mph4.7 kmh 29.94 in1013.9 mb 0.00 in0.0 mm 0.00 in/hr0.0 mm/hr 0.06 in1.5 mm
11:00 PM 31.3°F-0.4°C 24.9°F-3.9°C 77% 2.9 mph SW4.7 kmh SW 3.4 mph5.5 kmh 29.95 in1014.2 mb 0.00 in0.0 mm 0.00 in/hr0.0 mm/hr 0.06 in1.5 mm
11:05 PM 31.3°F-0.4°C 25.3°F-3.7°C 78% 0.8 mph SW1.3 kmh SW 3.4 mph5.5 kmh 29.95 in1014.2 mb 0.00 in0.0 mm 0.00 in/hr0.0 mm/hr 0.06 in1.5 mm
11:10 PM 31.0°F-0.6°C 24.6°F-4.1°C 77% 0.7 mph NNE1.1 kmh NNE 2.0 mph3.2 kmh 29.95 in1014.2 mb 0.00 in0.0 mm 0.00 in/hr0.0 mm/hr 0.06 in1.5 mm
11:15 PM 31.0°F-0.6°C 24.9°F-3.9°C 78% 0.7 mph NW1.1 kmh NW 2.0 mph3.2 kmh 29.95 in1014.2 mb 0.00 in0.0 mm 0.00 in/hr0.0 mm/hr 0.06 in1.5 mm
11:20 PM 31.0°F-0.6°C 24.9°F-3.9°C 78% 2.6 mph WSW4.2 kmh WSW 4.7 mph7.6 kmh 29.95 in1014.2 mb 0.00 in0.0 mm 0.00 in/hr0.0 mm/hr 0.06 in1.5 mm
11:25 PM 31.0°F-0.6°C 24.9°F-3.9°C 78% 3.8 mph SW6.1 kmh SW 5.4 mph8.7 kmh 29.95 in1014.2 mb 0.00 in0.0 mm 0.00 in/hr0.0 mm/hr 0.06 in1.5 mm
11:30 PM 31.0°F-0.6°C 24.9°F-3.9°C 78% 3.2 mph WSW5.1 kmh WSW 5.4 mph8.7 kmh 29.95 in1014.2 mb 0.00 in0.0 mm 0.00 in/hr0.0 mm/hr 0.06 in1.5 mm
11:34 PM 30.8°F-0.7°C 24.8°F-4.0°C 78% 1.5 mph SW2.4 kmh SW 5.4 mph8.7 kmh 29.95 in1014.2 mb 0.00 in0.0 mm 0.00 in/hr0.0 mm/hr 0.06 in1.5 mm
11:39 PM 30.6°F-0.8°C 24.6°F-4.1°C 78% 4.9 mph WSW7.9 kmh WSW 5.4 mph8.7 kmh 29.95 in1014.2 mb 0.00 in0.0 mm 0.00 in/hr0.0 mm/hr 0.06 in1.5 mm
11:44 PM 30.6°F-0.8°C 24.6°F-4.1°C 78% 2.8 mph WSW4.5 kmh WSW 5.4 mph8.7 kmh 29.95 in1014.2 mb 0.00 in0.0 mm 0.00 in/hr0.0 mm/hr 0.06 in1.5 mm
11:49 PM 30.6°F-0.8°C 24.6°F-4.1°C 78% 3.3 mph WSW5.3 kmh WSW 3.8 mph6.1 kmh 29.96 in1014.6 mb 0.00 in0.0 mm 0.00 in/hr0.0 mm/hr 0.06 in1.5 mm
11:54 PM 30.4°F-0.9°C 24.4°F-4.2°C 78% 3.1 mph SW5.0 kmh SW 4.0 mph6.4 kmh 29.96 in1014.6 mb 0.00 in0.0 mm 0.00 in/hr0.0 mm/hr 0.06 in1.5 mm